sensor_id;sensor_type;location;lat;lon;timestamp;pressure;altitude;pressure_sealevel;temperature;humidity
59757;BME280;45631;51.962;5.974;2023-08-24T00:01:51;101672.38;;;18.26;100.00
59757;BME280;45631;51.962;5.974;2023-08-24T00:04:20;101676.50;;;18.18;100.00
59757;BME280;45631;51.962;5.974;2023-08-24T00:06:48;101673.53;;;18.12;100.00
59757;BME280;45631;51.962;5.974;2023-08-24T00:09:17;101671.38;;;18.05;100.00
59757;BME280;45631;51.962;5.974;2023-08-24T00:11:45;101677.59;;;18.16;100.00
59757;BME280;45631;51.962;5.974;2023-08-24T00:14:13;101671.94;;;18.09;100.00
59757;BME280;45631;51.962;5.974;2023-08-24T00:16:42;101667.75;;;18.06;100.00
59757;BME280;45631;51.962;5.974;2023-08-24T00:19:10;101671.53;;;18.04;100.00
59757;BME280;45631;51.962;5.974;2023-08-24T00:21:38;101672.69;;;18.11;100.00
59757;BME280;45631;51.962;5.974;2023-08-24T00:24:07;101668.97;;;18.02;100.00
59757;BME280;45631;51.962;5.974;2023-08-24T00:26:36;101665.47;;;18.02;100.00
59757;BME280;45631;51.962;5.974;2023-08-24T00:29:04;101667.03;;;18.04;100.00
59757;BME280;45631;51.962;5.974;2023-08-24T00:31:32;101658.84;;;17.96;100.00
59757;BME280;45631;51.962;5.974;2023-08-24T00:34:01;101657.41;;;17.92;100.00
59757;BME280;45631;51.962;5.974;2023-08-24T00:36:29;101652.28;;;18.00;100.00
59757;BME280;45631;51.962;5.974;2023-08-24T00:38:58;101647.94;;;17.99;100.00
59757;BME280;45631;51.962;5.974;2023-08-24T00:41:26;101635.16;;;17.93;100.00
59757;BME280;45631;51.962;5.974;2023-08-24T00:43:55;101642.66;;;17.88;100.00
59757;BME280;45631;51.962;5.974;2023-08-24T00:46:25;101646.28;;;17.87;100.00
59757;BME280;45631;51.962;5.974;2023-08-24T00:48:55;101648.94;;;17.87;100.00
59757;BME280;45631;51.962;5.974;2023-08-24T00:51:24;101660.19;;;17.90;100.00
59757;BME280;45631;51.962;5.974;2023-08-24T00:53:53;101667.28;;;17.90;100.00
59757;BME280;45631;51.962;5.974;2023-08-24T00:56:21;101668.53;;;17.97;100.00
59757;BME280;45631;51.962;5.974;2023-08-24T00:58:52;101659.81;;;17.95;100.00
59757;BME280;45631;51.962;5.974;2023-08-24T01:01:23;101661.25;;;17.99;100.00
59757;BME280;45631;51.962;5.974;2023-08-24T01:03:51;101660.19;;;17.90;100.00
59757;BME280;45631;51.962;5.974;2023-08-24T01:06:19;101656.34;;;17.83;100.00
59757;BME280;45631;51.962;5.974;2023-08-24T01:08:48;101652.22;;;17.79;100.00
59757;BME280;45631;51.962;5.974;2023-08-24T01:11:27;101638.34;;;17.76;100.00
59757;BME280;45631;51.962;5.974;2023-08-24T01:14:06;101636.41;;;17.78;100.00
59757;BME280;45631;51.962;5.974;2023-08-24T01:16:38;101637.38;;;17.77;100.00
59757;BME280;45631;51.962;5.974;2023-08-24T01:19:10;101642.81;;;17.75;100.00
59757;BME280;45631;51.962;5.974;2023-08-24T01:21:44;101638.94;;;17.79;100.00
59757;BME280;45631;51.962;5.974;2023-08-24T01:24:18;101633.88;;;17.76;100.00
59757;BME280;45631;51.962;5.974;2023-08-24T01:26:49;101636.47;;;17.66;100.00
59757;BME280;45631;51.962;5.974;2023-08-24T01:29:19;101646.69;;;17.71;100.00
59757;BME280;45631;51.962;5.974;2023-08-24T01:31:48;101646.59;;;17.72;100.00
59757;BME280;45631;51.962;5.974;2023-08-24T01:34:17;101643.69;;;17.76;100.00
59757;BME280;45631;51.962;5.974;2023-08-24T01:36:45;101640.53;;;17.70;100.00
59757;BME280;45631;51.962;5.974;2023-08-24T01:39:18;101637.13;;;17.80;100.00
59757;BME280;45631;51.962;5.974;2023-08-24T01:41:51;101628.53;;;17.76;100.00
59757;BME280;45631;51.962;5.974;2023-08-24T01:44:21;101620.22;;;17.69;100.00
59757;BME280;45631;51.962;5.974;2023-08-24T01:46:52;101628.22;;;17.69;100.00
59757;BME280;45631;51.962;5.974;2023-08-24T01:49:21;101631.59;;;17.71;100.00
59757;BME280;45631;51.962;5.974;2023-08-24T01:51:50;101628.47;;;17.66;100.00
59757;BME280;45631;51.962;5.974;2023-08-24T01:54:19;101619.06;;;17.62;100.00
59757;BME280;45631;51.962;5.974;2023-08-24T01:56:47;101626.78;;;17.65;100.00
59757;BME280;45631;51.962;5.974;2023-08-24T01:59:17;101628.75;;;17.63;100.00
59757;BME280;45631;51.962;5.974;2023-08-24T02:01:47;101623.28;;;17.65;100.00
59757;BME280;45631;51.962;5.974;2023-08-24T02:04:15;101626.78;;;17.65;100.00
59757;BME280;45631;51.962;5.974;2023-08-24T02:06:43;101629.69;;;17.62;100.00
59757;BME280;45631;51.962;5.974;2023-08-24T02:09:11;101626.34;;;17.60;100.00
59757;BME280;45631;51.962;5.974;2023-08-24T02:11:39;101629.34;;;17.55;100.00
59757;BME280;45631;51.962;5.974;2023-08-24T02:14:08;101636.50;;;17.55;100.00
59757;BME280;45631;51.962;5.974;2023-08-24T02:16:37;101642.66;;;17.55;100.00
59757;BME280;45631;51.962;5.974;2023-08-24T02:19:06;101646.28;;;17.54;100.00
59757;BME280;45631;51.962;5.974;2023-08-24T02:21:35;101650.50;;;17.57;100.00
59757;BME280;45631;51.962;5.974;2023-08-24T02:24:04;101660.66;;;17.63;100.00
59757;BME280;45631;51.962;5.974;2023-08-24T02:26:33;101647.22;;;17.65;100.00
59757;BME280;45631;51.962;5.974;2023-08-24T02:29:01;101640.41;;;17.72;100.00
59757;BME280;45631;51.962;5.974;2023-08-24T02:31:29;101630.16;;;17.67;100.00
59757;BME280;45631;51.962;5.974;2023-08-24T02:33:59;101624.13;;;17.65;100.00
59757;BME280;45631;51.962;5.974;2023-08-24T02:36:30;101619.53;;;17.67;100.00
59757;BME280;45631;51.962;5.974;2023-08-24T02:39:00;101626.78;;;17.65;100.00
59757;BME280;45631;51.962;5.974;2023-08-24T02:41:29;101628.47;;;17.66;100.00
59757;BME280;45631;51.962;5.974;2023-08-24T02:43:57;101629.91;;;17.70;100.00
59757;BME280;45631;51.962;5.974;2023-08-24T02:46:25;101639.44;;;17.73;100.00
59757;BME280;45631;51.962;5.974;2023-08-24T02:48:53;101624.47;;;17.72;100.00
59757;BME280;45631;51.962;5.974;2023-08-24T02:51:23;101615.66;;;17.71;100.00
59757;BME280;45631;51.962;5.974;2023-08-24T02:53:51;101612.22;;;17.81;100.00
59757;BME280;45631;51.962;5.974;2023-08-24T02:56:19;101612.09;;;17.82;100.00
59757;BME280;45631;51.962;5.974;2023-08-24T02:58:47;101596.50;;;17.78;100.00
59757;BME280;45631;51.962;5.974;2023-08-24T03:01:15;101592.72;;;17.80;100.00
59757;BME280;45631;51.962;5.974;2023-08-24T03:03:44;101595.78;;;17.76;100.00
59757;BME280;45631;51.962;5.974;2023-08-24T03:06:12;101595.19;;;17.72;100.00
59757;BME280;45631;51.962;5.974;2023-08-24T03:08:41;101591.56;;;17.73;100.00
59757;BME280;45631;51.962;5.974;2023-08-24T03:11:10;101585.41;;;17.72;100.00
59757;BME280;45631;51.962;5.974;2023-08-24T03:13:38;101570.78;;;17.67;100.00
59757;BME280;45631;51.962;5.974;2023-08-24T03:16:06;101561.84;;;17.68;100.00
59757;BME280;45631;51.962;5.974;2023-08-24T03:18:34;101558.22;;;17.69;100.00
59757;BME280;45631;51.962;5.974;2023-08-24T03:21:03;101545.06;;;17.67;100.00
59757;BME280;45631;51.962;5.974;2023-08-24T03:23:31;101535.91;;;17.60;100.00
59757;BME280;45631;51.962;5.974;2023-08-24T03:26:01;101542.78;;;17.63;100.00
59757;BME280;45631;51.962;5.974;2023-08-24T03:28:29;101523.91;;;17.66;100.00
59757;BME280;45631;51.962;5.974;2023-08-24T03:30:58;101518.78;;;17.53;100.00
59757;BME280;45631;51.962;5.974;2023-08-24T03:33:26;101519.50;;;17.55;100.00
59757;BME280;45631;51.962;5.974;2023-08-24T03:35:54;101516.72;;;17.56;100.00
59757;BME280;45631;51.962;5.974;2023-08-24T03:38:22;101519.50;;;17.55;100.00
59757;BME280;45631;51.962;5.974;2023-08-24T03:40:50;101527.81;;;17.62;100.00
59757;BME280;45631;51.962;5.974;2023-08-24T03:43:20;101532.25;;;17.61;100.00
59757;BME280;45631;51.962;5.974;2023-08-24T03:45:48;101526.13;;;17.61;100.00
59757;BME280;45631;51.962;5.974;2023-08-24T03:48:16;101517.41;;;17.58;100.00
59757;BME280;45631;51.962;5.974;2023-08-24T03:50:44;101517.66;;;17.55;100.00
59757;BME280;45631;51.962;5.974;2023-08-24T03:53:12;101516.13;;;17.53;100.00
59757;BME280;45631;51.962;5.974;2023-08-24T03:55:41;101516.25;;;17.51;100.00
59757;BME280;45631;51.962;5.974;2023-08-24T03:58:09;101509.91;;;17.43;100.00
59757;BME280;45631;51.962;5.974;2023-08-24T04:00:39;101511.56;;;17.44;100.00
59757;BME280;45631;51.962;5.974;2023-08-24T04:03:08;101510.88;;;17.42;100.00
59757;BME280;45631;51.962;5.974;2023-08-24T04:05:36;101507.59;;;17.38;100.00
59757;BME280;45631;51.962;5.974;2023-08-24T04:08:05;101506.19;;;17.34;100.00
59757;BME280;45631;51.962;5.974;2023-08-24T04:10:37;101498.34;;;17.32;100.00
59757;BME280;45631;51.962;5.974;2023-08-24T04:13:06;101497.25;;;17.35;100.00
59757;BME280;45631;51.962;5.974;2023-08-24T04:15:34;101496.78;;;17.30;100.00
59757;BME280;45631;51.962;5.974;2023-08-24T04:18:04;101504.75;;;17.30;100.00
59757;BME280;45631;51.962;5.974;2023-08-24T04:20:32;101503.91;;;17.29;100.00
59757;BME280;45631;51.962;5.974;2023-08-24T04:23:01;101490.63;;;17.29;100.00
59757;BME280;45631;51.962;5.974;2023-08-24T04:25:33;101479.84;;;17.31;100.00
59757;BME280;45631;51.962;5.974;2023-08-24T04:28:02;101481.91;;;17.27;100.00
59757;BME280;45631;51.962;5.974;2023-08-24T04:30:32;101480.06;;;17.18;100.00
59757;BME280;45631;51.962;5.974;2023-08-24T04:33:01;101479.53;;;17.24;100.00
59757;BME280;45631;51.962;5.974;2023-08-24T04:35:34;101476.88;;;17.24;100.00
59757;BME280;45631;51.962;5.974;2023-08-24T04:38:03;101482.47;;;17.10;100.00
59757;BME280;45631;51.962;5.974;2023-08-24T04:40:48;101472.09;;;17.06;100.00
59757;BME280;45631;51.962;5.974;2023-08-24T04:43:16;101477.69;;;17.03;100.00
59757;BME280;45631;51.962;5.974;2023-08-24T04:45:46;101478.53;;;17.04;100.00
59757;BME280;45631;51.962;5.974;2023-08-24T04:48:15;101483.00;;;17.03;100.00
59757;BME280;45631;51.962;5.974;2023-08-24T04:50:45;101477.94;;;17.00;100.00
59757;BME280;45631;51.962;5.974;2023-08-24T04:53:14;101474.91;;;17.05;100.00
59757;BME280;45631;51.962;5.974;2023-08-24T04:55:43;101472.03;;;16.97;100.00
59757;BME280;45631;51.962;5.974;2023-08-24T04:58:12;101476.50;;;16.96;100.00
59757;BME280;45631;51.962;5.974;2023-08-24T05:00:41;101461.28;;;16.87;100.00
59757;BME280;45631;51.962;5.974;2023-08-24T05:03:09;101468.78;;;16.93;100.00
59757;BME280;45631;51.962;5.974;2023-08-24T05:05:40;101473.50;;;16.89;100.00
59757;BME280;45631;51.962;5.974;2023-08-24T05:08:09;101473.63;;;16.88;100.00
59757;BME280;45631;51.962;5.974;2023-08-24T05:10:39;101466.38;;;16.90;100.00
59757;BME280;45631;51.962;5.974;2023-08-24T05:13:08;101476.03;;;16.91;100.00
59757;BME280;45631;51.962;5.974;2023-08-24T05:15:36;101475.06;;;16.92;100.00
59757;BME280;45631;51.962;5.974;2023-08-24T05:18:04;101483.25;;;17.00;100.00
59757;BME280;45631;51.962;5.974;2023-08-24T05:20:32;101484.69;;;17.04;100.00
59757;BME280;45631;51.962;5.974;2023-08-24T05:23:01;101483.34;;;17.10;100.00
59757;BME280;45631;51.962;5.974;2023-08-24T05:25:30;101476.06;;;17.12;100.00
59757;BME280;45631;51.962;5.974;2023-08-24T05:28:00;101481.97;;;17.16;100.00
59757;BME280;45631;51.962;5.974;2023-08-24T05:30:32;101479.72;;;17.11;100.00
59757;BME280;45631;51.962;5.974;2023-08-24T05:33:00;101481.25;;;17.14;100.00
59757;BME280;45631;51.962;5.974;2023-08-24T05:35:29;101485.47;;;17.16;100.00
59757;BME280;45631;51.962;5.974;2023-08-24T05:37:57;101493.78;;;17.23;100.00
59757;BME280;45631;51.962;5.974;2023-08-24T05:40:25;101495.00;;;17.19;100.00
59757;BME280;45631;51.962;5.974;2023-08-24T05:42:54;101489.56;;;17.20;100.00
59757;BME280;45631;51.962;5.974;2023-08-24T05:45:22;101486.81;;;17.22;100.00
59757;BME280;45631;51.962;5.974;2023-08-24T05:47:54;101484.72;;;17.26;100.00
59757;BME280;45631;51.962;5.974;2023-08-24T05:50:23;101471.56;;;17.24;100.00
59757;BME280;45631;51.962;5.974;2023-08-24T05:52:51;101475.78;;;17.27;100.00
59757;BME280;45631;51.962;5.974;2023-08-24T05:55:19;101470.19;;;17.30;100.00
59757;BME280;45631;51.962;5.974;2023-08-24T05:57:47;101464.03;;;17.29;100.00
59757;BME280;45631;51.962;5.974;2023-08-24T06:00:18;101471.16;;;17.29;100.00
59757;BME280;45631;51.962;5.974;2023-08-24T06:02:49;101471.75;;;17.32;100.00
59757;BME280;45631;51.962;5.974;2023-08-24T06:05:20;101466.63;;;17.40;100.00
59757;BME280;45631;51.962;5.974;2023-08-24T06:07:48;101466.81;;;17.49;100.00
59757;BME280;45631;51.962;5.974;2023-08-24T06:10:17;101451.31;;;17.54;100.00
59757;BME280;45631;51.962;5.974;2023-08-24T06:12:45;101449.25;;;17.57;100.00
59757;BME280;45631;51.962;5.974;2023-08-24T06:15:13;101448.84;;;17.62;100.00
59757;BME280;45631;51.962;5.974;2023-08-24T06:17:43;101444.97;;;17.66;100.00
59757;BME280;45631;51.962;5.974;2023-08-24T06:20:13;101433.91;;;17.71;100.00
59757;BME280;45631;51.962;5.974;2023-08-24T06:22:41;101424.13;;;17.71;100.00
59757;BME280;45631;51.962;5.974;2023-08-24T06:25:10;101424.59;;;17.77;100.00
59757;BME280;45631;51.962;5.974;2023-08-24T06:27:38;101414.63;;;17.79;100.00
59757;BME280;45631;51.962;5.974;2023-08-24T06:30:07;101411.84;;;17.80;100.00
59757;BME280;45631;51.962;5.974;2023-08-24T06:32:35;101398.72;;;17.88;100.00
59757;BME280;45631;51.962;5.974;2023-08-24T06:35:05;101409.00;;;17.93;100.00
59757;BME280;45631;51.962;5.974;2023-08-24T06:37:34;101403.13;;;17.99;100.00
59757;BME280;45631;51.962;5.974;2023-08-24T06:40:02;101400.63;;;18.07;100.00
59757;BME280;45631;51.962;5.974;2023-08-24T06:42:32;101402.47;;;18.17;100.00
59757;BME280;45631;51.962;5.974;2023-08-24T06:45:00;101404.72;;;18.21;100.00
59757;BME280;45631;51.962;5.974;2023-08-24T06:47:30;101406.44;;;18.32;100.00
59757;BME280;45631;51.962;5.974;2023-08-24T06:49:59;101413.31;;;18.45;100.00
59757;BME280;45631;51.962;5.974;2023-08-24T06:52:28;101420.47;;;18.54;100.00
59757;BME280;45631;51.962;5.974;2023-08-24T06:54:56;101418.09;;;18.61;100.00
59757;BME280;45631;51.962;5.974;2023-08-24T06:57:25;101416.56;;;18.68;100.00
59757;BME280;45631;51.962;5.974;2023-08-24T06:59:53;101412.09;;;18.78;100.00
59757;BME280;45631;51.962;5.974;2023-08-24T07:02:21;101416.03;;;18.94;100.00
59757;BME280;45631;51.962;5.974;2023-08-24T07:04:50;101412.69;;;19.01;100.00
59757;BME280;45631;51.962;5.974;2023-08-24T07:07:18;101402.28;;;19.18;100.00
59757;BME280;45631;51.962;5.974;2023-08-24T07:09:47;101408.59;;;19.27;100.00
59757;BME280;45631;51.962;5.974;2023-08-24T07:12:15;101402.38;;;19.36;100.00
59757;BME280;45631;51.962;5.974;2023-08-24T07:14:44;101400.09;;;19.51;100.00
59757;BME280;45631;51.962;5.974;2023-08-24T07:17:12;101390.66;;;19.66;100.00
59757;BME280;45631;51.962;5.974;2023-08-24T07:19:40;101394.53;;;19.82;100.00
59757;BME280;45631;51.962;5.974;2023-08-24T07:22:08;101380.84;;;19.95;100.00
59757;BME280;45631;51.962;5.974;2023-08-24T07:24:36;101373.72;;;20.13;100.00
59757;BME280;45631;51.962;5.974;2023-08-24T07:27:14;101378.00;;;20.24;100.00
59757;BME280;45631;51.962;5.974;2023-08-24T07:29:46;101378.34;;;20.39;100.00
59757;BME280;45631;51.962;5.974;2023-08-24T07:32:14;101384.31;;;20.51;100.00
59757;BME280;45631;51.962;5.974;2023-08-24T07:34:42;101386.84;;;20.70;100.00
59757;BME280;45631;51.962;5.974;2023-08-24T07:37:10;101395.00;;;20.87;100.00
59757;BME280;45631;51.962;5.974;2023-08-24T07:39:39;101382.91;;;21.01;100.00
59757;BME280;45631;51.962;5.974;2023-08-24T07:42:07;101390.91;;;21.19;100.00
59757;BME280;45631;51.962;5.974;2023-08-24T07:44:36;101390.97;;;21.27;100.00
59757;BME280;45631;51.962;5.974;2023-08-24T07:47:04;101389.72;;;21.39;100.00
59757;BME280;45631;51.962;5.974;2023-08-24T07:49:32;101383.63;;;21.55;100.00
59757;BME280;45631;51.962;5.974;2023-08-24T07:52:01;101389.38;;;21.69;100.00
59757;BME280;45631;51.962;5.974;2023-08-24T07:54:29;101383.09;;;21.86;100.00
59757;BME280;45631;51.962;5.974;2023-08-24T07:56:57;101386.38;;;22.06;100.00
59757;BME280;45631;51.962;5.974;2023-08-24T07:59:25;101375.69;;;22.23;100.00
59757;BME280;45631;51.962;5.974;2023-08-24T08:01:55;101383.97;;;22.46;100.00
59757;BME280;45631;51.962;5.974;2023-08-24T08:04:26;101390.19;;;22.71;100.00
59757;BME280;45631;51.962;5.974;2023-08-24T08:06:54;101390.34;;;22.86;100.00
59757;BME280;45631;51.962;5.974;2023-08-24T08:09:23;101385.66;;;22.88;100.00
59757;BME280;45631;51.962;5.974;2023-08-24T08:11:51;101384.50;;;23.16;100.00
59757;BME280;45631;51.962;5.974;2023-08-24T08:14:20;101387.97;;;23.41;100.00
59757;BME280;45631;51.962;5.974;2023-08-24T08:16:48;101396.13;;;23.56;100.00
59757;BME280;45631;51.962;5.974;2023-08-24T08:19:17;101397.25;;;23.78;100.00
59757;BME280;45631;51.962;5.974;2023-08-24T08:21:49;101396.50;;;24.01;100.00
59757;BME280;45631;51.962;5.974;2023-08-24T08:24:17;101392.28;;;24.06;100.00
59757;BME280;45631;51.962;5.974;2023-08-24T08:26:52;101385.75;;;24.32;100.00
59757;BME280;45631;51.962;5.974;2023-08-24T08:29:20;101386.31;;;24.51;100.00
59757;BME280;45631;51.962;5.974;2023-08-24T08:31:48;101384.84;;;24.71;100.00
59757;BME280;45631;51.962;5.974;2023-08-24T08:34:20;101375.38;;;24.75;100.00
59757;BME280;45631;51.962;5.974;2023-08-24T08:36:48;101380.66;;;24.69;100.00
59757;BME280;45631;51.962;5.974;2023-08-24T08:39:16;101382.91;;;24.80;100.00
59757;BME280;45631;51.962;5.974;2023-08-24T08:41:48;101391.91;;;25.10;100.00
59757;BME280;45631;51.962;5.974;2023-08-24T08:44:17;101384.00;;;25.09;100.00
59757;BME280;45631;51.962;5.974;2023-08-24T08:46:46;101370.50;;;25.32;100.00
59757;BME280;45631;51.962;5.974;2023-08-24T08:49:16;101375.63;;;25.42;100.00
59757;BME280;45631;51.962;5.974;2023-08-24T08:51:45;101356.41;;;25.45;100.00
59757;BME280;45631;51.962;5.974;2023-08-24T08:54:13;101345.63;;;25.45;100.00
59757;BME280;45631;51.962;5.974;2023-08-24T08:56:42;101340.44;;;25.58;100.00
59757;BME280;45631;51.962;5.974;2023-08-24T08:59:11;101339.84;;;25.78;100.00
59757;BME280;45631;51.962;5.974;2023-08-24T09:01:41;101330.88;;;25.56;100.00
59757;BME280;45631;51.962;5.974;2023-08-24T09:04:11;101310.78;;;25.73;100.00
59757;BME280;45631;51.962;5.974;2023-08-24T09:06:39;101305.09;;;25.83;100.00
59757;BME280;45631;51.962;5.974;2023-08-24T09:09:11;101300.03;;;26.10;100.00
59757;BME280;45631;51.962;5.974;2023-08-24T09:11:40;101294.03;;;26.14;100.00
59757;BME280;45631;51.962;5.974;2023-08-24T09:14:09;101287.78;;;26.29;100.00
59757;BME280;45631;51.962;5.974;2023-08-24T09:16:37;101277.88;;;26.36;100.00
59757;BME280;45631;51.962;5.974;2023-08-24T09:19:05;101282.25;;;26.37;100.00
59757;BME280;45631;51.962;5.974;2023-08-24T09:21:36;101278.00;;;26.49;100.00
59757;BME280;45631;51.962;5.974;2023-08-24T09:24:06;101280.91;;;26.76;100.00
59757;BME280;45631;51.962;5.974;2023-08-24T09:26:37;101268.19;;;26.98;100.00
59757;BME280;45631;51.962;5.974;2023-08-24T09:29:14;101262.38;;;27.02;100.00
59757;BME280;45631;51.962;5.974;2023-08-24T09:31:43;101251.88;;;27.13;100.00
59757;BME280;45631;51.962;5.974;2023-08-24T09:34:12;101244.84;;;27.19;100.00
59757;BME280;45631;51.962;5.974;2023-08-24T09:36:40;101234.91;;;27.33;100.00
59757;BME280;45631;51.962;5.974;2023-08-24T09:39:10;101233.34;;;27.45;100.00
59757;BME280;45631;51.962;5.974;2023-08-24T09:41:43;101221.53;;;27.53;100.00
59757;BME280;45631;51.962;5.974;2023-08-24T09:44:11;101215.97;;;27.88;100.00
59757;BME280;45631;51.962;5.974;2023-08-24T09:46:39;101216.63;;;27.97;100.00
59757;BME280;45631;51.962;5.974;2023-08-24T09:49:09;101207.69;;;27.96;100.00
59757;BME280;45631;51.962;5.974;2023-08-24T09:51:39;101222.28;;;28.15;100.00
59757;BME280;45631;51.962;5.974;2023-08-24T09:54:09;101228.91;;;28.33;100.00
59757;BME280;45631;51.962;5.974;2023-08-24T09:56:38;101232.84;;;28.30;100.00
59757;BME280;45631;51.962;5.974;2023-08-24T09:59:11;101233.06;;;28.49;100.00
59757;BME280;45631;51.962;5.974;2023-08-24T10:01:44;101234.28;;;28.60;100.00
59757;BME280;45631;51.962;5.974;2023-08-24T10:04:15;101235.97;;;28.34;100.00
59757;BME280;45631;51.962;5.974;2023-08-24T10:06:49;101243.88;;;28.36;100.00
59757;BME280;45631;51.962;5.974;2023-08-24T10:09:22;101247.66;;;28.28;100.00
59757;BME280;45631;51.962;5.974;2023-08-24T10:11:53;101241.81;;;28.31;100.00
59757;BME280;45631;51.962;5.974;2023-08-24T10:14:29;101242.41;;;28.26;100.00
59757;BME280;45631;51.962;5.974;2023-08-24T10:16:59;101245.56;;;28.23;100.00
59757;BME280;45631;51.962;5.974;2023-08-24T10:19:27;101254.31;;;28.32;100.00
59757;BME280;45631;51.962;5.974;2023-08-24T10:21:57;101259.28;;;28.35;100.00
59757;BME280;45631;51.962;5.974;2023-08-24T10:24:28;101267.41;;;28.35;100.00
59757;BME280;45631;51.962;5.974;2023-08-24T10:26:58;101260.31;;;28.34;100.00
59757;BME280;45631;51.962;5.974;2023-08-24T10:29:29;101252.41;;;28.26;100.00
59757;BME280;45631;51.962;5.974;2023-08-24T10:31:58;101237.03;;;28.13;100.00
59757;BME280;45631;51.962;5.974;2023-08-24T10:34:26;101239.53;;;28.08;100.00
59757;BME280;45631;51.962;5.974;2023-08-24T10:36:54;101232.44;;;28.07;100.00
59757;BME280;45631;51.962;5.974;2023-08-24T10:39:27;101218.94;;;28.00;100.00
59757;BME280;45631;51.962;5.974;2023-08-24T10:41:55;101211.19;;;27.90;100.00
59757;BME280;45631;51.962;5.974;2023-08-24T10:44:25;101197.28;;;27.93;100.00
59757;BME280;45631;51.962;5.974;2023-08-24T10:47:15;101201.03;;;27.86;100.00
59757;BME280;45631;51.962;5.974;2023-08-24T10:49:58;101188.53;;;27.71;100.00
59757;BME280;45631;51.962;5.974;2023-08-24T10:52:30;101198.28;;;27.59;100.00
59757;BME280;45631;51.962;5.974;2023-08-24T10:55:00;101198.69;;;27.56;100.00
59757;BME280;45631;51.962;5.974;2023-08-24T10:57:35;101198.84;;;27.41;100.00
59757;BME280;45631;51.962;5.974;2023-08-24T11:00:05;101196.47;;;27.24;100.00
59757;BME280;45631;51.962;5.974;2023-08-24T11:02:45;101191.63;;;27.06;100.00
59757;BME280;45631;51.962;5.974;2023-08-24T11:05:16;101185.81;;;27.03;100.00
59757;BME280;45631;51.962;5.974;2023-08-24T11:07:52;101185.69;;;26.82;100.00
59757;BME280;45631;51.962;5.974;2023-08-24T11:10:22;101192.94;;;26.75;100.00
59757;BME280;45631;51.962;5.974;2023-08-24T11:13:07;101189.78;;;26.72;100.00
59757;BME280;45631;51.962;5.974;2023-08-24T11:15:40;101186.16;;;26.58;100.00
59757;BME280;45631;51.962;5.974;2023-08-24T11:18:21;101193.34;;;26.44;100.00
59757;BME280;45631;51.962;5.974;2023-08-24T11:20:51;101197.91;;;26.50;100.00
59757;BME280;45631;51.962;5.974;2023-08-24T11:23:21;101204.94;;;26.44;100.00
59757;BME280;45631;51.962;5.974;2023-08-24T11:25:50;101204.53;;;26.47;100.00
59757;BME280;45631;51.962;5.974;2023-08-24T11:28:22;101201.25;;;26.24;100.00
59757;BME280;45631;51.962;5.974;2023-08-24T11:30:51;101203.63;;;26.34;100.00
59757;BME280;45631;51.962;5.974;2023-08-24T11:33:30;101190.78;;;26.36;100.00
59757;BME280;45631;51.962;5.974;2023-08-24T11:35:59;101180.63;;;26.38;100.00
59757;BME280;45631;51.962;5.974;2023-08-24T11:38:37;101185.97;;;26.31;100.00
59757;BME280;45631;51.962;5.974;2023-08-24T11:41:13;101177.09;;;26.37;100.00
59757;BME280;45631;51.962;5.974;2023-08-24T11:43:43;101177.09;;;26.37;100.00
59757;BME280;45631;51.962;5.974;2023-08-24T11:46:12;101180.44;;;26.39;100.00
59757;BME280;45631;51.962;5.974;2023-08-24T11:48:42;101164.16;;;26.26;100.00
59757;BME280;45631;51.962;5.974;2023-08-24T11:51:11;101162.09;;;26.28;100.00
59757;BME280;45631;51.962;5.974;2023-08-24T11:53:41;101155.84;;;26.21;100.00
59757;BME280;45631;51.962;5.974;2023-08-24T11:56:10;101146.72;;;26.22;100.00
59757;BME280;45631;51.962;5.974;2023-08-24T11:58:39;101150.06;;;26.24;100.00
59757;BME280;45631;51.962;5.974;2023-08-24T12:01:08;101135.78;;;26.30;100.00
59757;BME280;45631;51.962;5.974;2023-08-24T12:03:36;101133.31;;;26.35;100.00
59757;BME280;45631;51.962;5.974;2023-08-24T12:06:12;101119.72;;;26.50;100.00
59757;BME280;45631;51.962;5.974;2023-08-24T12:08:41;101111.22;;;26.46;100.00
59757;BME280;45631;51.962;5.974;2023-08-24T12:11:12;101126.09;;;26.36;100.00
59757;BME280;45631;51.962;5.974;2023-08-24T12:13:44;101115.72;;;26.39;100.00
59757;BME280;45631;51.962;5.974;2023-08-24T12:16:13;101107.47;;;26.47;100.00
59757;BME280;45631;51.962;5.974;2023-08-24T12:18:49;101106.22;;;26.43;100.00
59757;BME280;45631;51.962;5.974;2023-08-24T12:21:21;101095.34;;;26.30;100.00
59757;BME280;45631;51.962;5.974;2023-08-24T12:23:57;101084.25;;;26.46;100.00
59757;BME280;45631;51.962;5.974;2023-08-24T12:26:26;101075.59;;;26.58;100.00
59757;BME280;45631;51.962;5.974;2023-08-24T12:29:00;101070.00;;;26.59;100.00
59757;BME280;45631;51.962;5.974;2023-08-24T12:31:30;101081.22;;;26.63;100.00
59757;BME280;45631;51.962;5.974;2023-08-24T12:33:59;101082.72;;;26.72;100.00
59757;BME280;45631;51.962;5.974;2023-08-24T12:36:29;101084.22;;;26.81;100.00
59757;BME280;45631;51.962;5.974;2023-08-24T12:38:58;101089.59;;;26.75;100.00
59757;BME280;45631;51.962;5.974;2023-08-24T12:41:26;101080.16;;;26.64;100.00
59757;BME280;45631;51.962;5.974;2023-08-24T12:43:54;101066.06;;;26.62;100.00
59757;BME280;45631;51.962;5.974;2023-08-24T12:46:23;101055.69;;;26.59;100.00
59757;BME280;45631;51.962;5.974;2023-08-24T12:48:52;101044.09;;;26.65;100.00
59757;BME280;45631;51.962;5.974;2023-08-24T12:51:22;101050.69;;;26.56;100.00
59757;BME280;45631;51.962;5.974;2023-08-24T12:53:52;101040.38;;;26.66;100.00